Time;durP1;ratioP1;P1;durP2;ratioP2;P2;SDS_P1;SDS_P2;PMS_P1;PMS_P2;Temp;Humidity;BMP_temperature;BMP_pressure;BME280_temperature;BME280_humidity;BME280_pressure;Samples;Min_cycle;Max_cycle;Signal;HPM_P1;HPM_P2
2023/08/07 00:00:09;;;;;;;3.45;1.90;;;17.90;80.00;;;;;;5023557;28;20044;-56
2023/08/07 00:02:35;;;;;;;5.47;1.70;;;17.80;80.00;;;;;;5037396;28;20029;-56
2023/08/07 00:05:00;;;;;;;8.60;1.60;;;17.80;80.00;;;;;;5016545;28;20042;-56
2023/08/07 00:07:26;;;;;;;4.28;1.50;;;17.80;80.00;;;;;;5004409;28;20089;-56
2023/08/07 00:09:51;;;;;;;8.07;1.70;;;17.80;80.00;;;;;;5016755;28;20018;-56
2023/08/07 00:12:17;;;;;;;4.03;1.50;;;17.80;80.10;;;;;;5024795;28;20031;-56
2023/08/07 00:14:42;;;;;;;4.13;1.42;;;17.80;80.10;;;;;;5023658;28;20022;-56
2023/08/07 00:17:08;;;;;;;5.20;1.67;;;17.80;80.20;;;;;;5023418;28;20459;-56
2023/08/07 00:19:34;;;;;;;2.63;1.42;;;17.80;80.30;;;;;;5023353;28;20048;-56
2023/08/07 00:21:59;;;;;;;3.13;1.80;;;17.70;80.20;;;;;;5024396;28;20378;-56
2023/08/07 00:24:25;;;;;;;5.47;1.55;;;17.70;80.20;;;;;;5024392;28;20038;-56
2023/08/07 00:26:50;;;;;;;3.50;1.90;;;17.70;80.30;;;;;;5023132;28;20053;-56
2023/08/07 00:29:16;;;;;;;2.35;1.63;;;17.70;80.30;;;;;;5023093;28;20097;-56
2023/08/07 00:31:41;;;;;;;3.65;1.50;;;17.70;80.30;;;;;;5023234;28;20057;-56
2023/08/07 00:34:07;;;;;;;3.25;1.30;;;17.70;80.40;;;;;;5021956;28;20045;-56
2023/08/07 00:36:34;;;;;;;4.30;1.65;;;17.70;80.40;;;;;;5025888;28;20044;-56
2023/08/07 00:39:00;;;;;;;3.72;1.60;;;17.70;80.40;;;;;;5027352;28;20034;-56
2023/08/07 00:41:26;;;;;;;3.28;1.38;;;17.70;80.50;;;;;;5028213;28;20466;-56
2023/08/07 00:43:51;;;;;;;4.13;1.42;;;17.60;80.50;;;;;;5026291;28;20033;-56
2023/08/07 00:46:17;;;;;;;3.15;1.50;;;17.60;80.50;;;;;;5010272;28;20119;-56
2023/08/07 00:48:43;;;;;;;3.25;1.30;;;17.60;80.60;;;;;;5010337;28;20038;-56
2023/08/07 00:51:08;;;;;;;2.63;1.40;;;17.60;80.60;;;;;;5026494;28;20030;-56
2023/08/07 00:53:37;;;;;;;3.58;1.42;;;17.60;80.60;;;;;;5026483;28;20026;-56
2023/08/07 00:56:02;;;;;;;2.35;1.40;;;17.60;80.80;;;;;;5010438;28;20093;-56
2023/08/07 00:58:28;;;;;;;4.82;1.27;;;17.60;80.90;;;;;;5026449;28;20049;-55
2023/08/07 01:00:53;;;;;;;2.22;1.27;;;17.60;80.90;;;;;;5026373;28;20037;-56
2023/08/07 01:03:19;;;;;;;1.55;1.30;;;17.60;80.90;;;;;;5026264;28;20026;-56
2023/08/07 01:05:44;;;;;;;4.43;1.45;;;17.50;80.90;;;;;;5009808;28;20122;-56
2023/08/07 01:08:10;;;;;;;4.00;1.30;;;17.60;80.90;;;;;;5026404;28;20050;-56
2023/08/07 01:10:54;;;;;;;6.65;1.60;;;17.50;80.90;;;;;;5010259;28;20022;-56
2023/08/07 01:13:43;;;;;;;4.47;1.40;;;17.50;81.00;;;;;;5026622;28;20076;-56
2023/08/07 01:16:17;;;;;;;2.55;1.20;;;17.50;81.10;;;;;;5015875;28;20054;-56
2023/08/07 01:18:42;;;;;;;3.08;1.40;;;17.50;81.10;;;;;;5010298;28;20109;-56
2023/08/07 01:21:16;;;;;;;2.58;1.20;;;17.50;81.10;;;;;;4992363;28;20335;-56
2023/08/07 01:23:42;;;;;;;3.20;1.33;;;17.50;81.20;;;;;;5023629;28;20061;-56
2023/08/07 01:26:07;;;;;;;2.05;1.20;;;17.40;81.30;;;;;;5026834;28;20030;-56
2023/08/07 01:28:35;;;;;;;2.10;1.20;;;17.40;81.30;;;;;;5009677;28;20056;-56
2023/08/07 01:31:03;;;;;;;5.00;1.40;;;17.40;81.20;;;;;;5009594;28;20030;-56
2023/08/07 01:33:51;;;;;;;3.78;1.48;;;17.40;81.20;;;;;;5025834;28;20041;-56
2023/08/07 01:36:16;;;;;;;2.00;1.35;;;17.40;81.30;;;;;;4994953;28;20028;-55
2023/08/07 01:38:42;;;;;;;4.00;1.50;;;17.40;81.30;;;;;;4994188;28;20034;-56
2023/08/07 01:41:07;;;;;;;1.73;1.25;;;17.40;81.40;;;;;;5009345;28;20041;-56
2023/08/07 01:43:33;;;;;;;3.88;1.48;;;17.40;81.60;;;;;;5009180;28;20038;-56
2023/08/07 01:45:59;;;;;;;2.17;1.20;;;17.40;81.50;;;;;;5009094;28;20057;-56
2023/08/07 01:48:25;;;;;;;3.45;1.27;;;17.30;81.50;;;;;;4992326;28;20084;-56
2023/08/07 01:50:50;;;;;;;2.70;1.40;;;17.40;81.60;;;;;;5025257;28;20026;-56
2023/08/07 01:53:16;;;;;;;2.50;1.20;;;17.30;81.60;;;;;;5026807;28;20034;-56
2023/08/07 01:55:41;;;;;;;2.22;1.00;;;17.40;81.70;;;;;;5008936;28;20064;-56
2023/08/07 01:58:07;;;;;;;2.33;1.08;;;17.30;81.80;;;;;;5026436;28;20101;-55
2023/08/07 02:00:33;;;;;;;2.17;1.40;;;17.30;81.80;;;;;;5026590;28;20029;-56
2023/08/07 02:02:58;;;;;;;4.82;1.30;;;17.30;81.80;;;;;;5007831;28;20033;-56
2023/08/07 02:05:24;;;;;;;3.60;1.30;;;17.30;81.80;;;;;;5024288;28;20030;-56
2023/08/07 02:07:49;;;;;;;4.07;1.23;;;17.30;81.80;;;;;;5025614;28;20026;-56
2023/08/07 02:10:15;;;;;;;2.13;1.40;;;17.30;81.80;;;;;;5025071;28;20057;-56
2023/08/07 02:12:40;;;;;;;2.05;1.00;;;17.30;81.90;;;;;;5025005;28;20032;-56
2023/08/07 02:15:06;;;;;;;2.45;1.30;;;17.30;82.00;;;;;;5026346;28;20045;-56
2023/08/07 02:17:32;;;;;;;1.52;0.98;;;17.30;82.00;;;;;;5024875;28;20041;-56
2023/08/07 02:19:58;;;;;;;3.30;1.10;;;17.20;81.90;;;;;;5024720;28;20041;-56
2023/08/07 02:22:24;;;;;;;1.88;1.33;;;17.20;81.90;;;;;;5008407;28;20030;-56
2023/08/07 02:24:49;;;;;;;3.78;1.33;;;17.20;82.00;;;;;;5026182;28;20028;-56
2023/08/07 02:27:15;;;;;;;1.42;0.88;;;17.20;82.10;;;;;;4992074;28;20084;-56
2023/08/07 02:29:41;;;;;;;1.75;1.10;;;17.20;82.10;;;;;;5026150;28;20052;-56
2023/08/07 02:32:06;;;;;;;2.10;1.10;;;17.20;82.20;;;;;;5022999;28;20037;-56
2023/08/07 02:34:32;;;;;;;2.55;1.27;;;17.20;82.20;;;;;;5024961;28;20030;-57
2023/08/07 02:36:58;;;;;;;1.88;1.40;;;17.20;82.30;;;;;;5007811;28;20516;-56
2023/08/07 02:39:24;;;;;;;1.90;1.10;;;17.10;82.30;;;;;;5024580;28;20038;-56
2023/08/07 02:41:50;;;;;;;2.03;1.10;;;17.10;82.30;;;;;;5024084;28;20372;-57
2023/08/07 02:44:17;;;;;;;1.48;1.20;;;17.10;82.30;;;;;;5023832;28;20089;-56
2023/08/07 02:46:43;;;;;;;2.75;1.30;;;17.10;82.40;;;;;;5025814;28;20018;-55
2023/08/07 02:49:08;;;;;;;2.97;0.95;;;17.10;82.50;;;;;;5024287;28;20044;-56
2023/08/07 02:51:34;;;;;;;2.17;1.20;;;17.10;82.50;;;;;;5024417;28;20038;-55
2023/08/07 02:53:59;;;;;;;1.55;1.45;;;17.10;82.70;;;;;;5025524;28;20022;-56
2023/08/07 02:56:25;;;;;;;1.38;0.90;;;17.10;83.40;;;;;;5024188;28;20041;-56
2023/08/07 02:58:50;;;;;;;1.48;1.05;;;17.10;82.80;;;;;;5023232;28;20469;-56
2023/08/07 03:01:16;;;;;;;2.00;1.40;;;17.10;82.80;;;;;;5025556;28;20029;-56
2023/08/07 03:03:41;;;;;;;2.03;1.10;;;17.10;82.80;;;;;;5007836;28;20052;-56
2023/08/07 03:06:07;;;;;;;2.78;1.33;;;17.00;82.90;;;;;;5025360;28;20120;-56
2023/08/07 03:08:32;;;;;;;1.42;1.13;;;17.00;83.00;;;;;;5007565;28;20034;-56
2023/08/07 03:10:58;;;;;;;1.95;1.02;;;17.00;83.10;;;;;;5025333;28;20030;-56
2023/08/07 03:13:24;;;;;;;2.47;1.10;;;17.00;83.10;;;;;;5024046;28;20040;-56
2023/08/07 03:15:50;;;;;;;2.35;1.00;;;16.90;83.10;;;;;;5025171;28;20030;-56
2023/08/07 03:18:18;;;;;;;1.27;0.95;;;17.00;83.20;;;;;;5025407;28;20129;-56
2023/08/07 03:20:44;;;;;;;1.58;1.15;;;16.90;83.10;;;;;;5025283;28;20104;-56
2023/08/07 03:23:10;;;;;;;1.70;1.10;;;16.90;83.10;;;;;;5023787;28;20038;-56
2023/08/07 03:25:35;;;;;;;1.45;1.00;;;16.90;83.10;;;;;;5007556;28;20030;-56
2023/08/07 03:28:01;;;;;;;0.95;0.65;;;16.90;83.10;;;;;;5024959;28;20040;-56
2023/08/07 03:30:26;;;;;;;0.98;0.88;;;16.90;83.20;;;;;;5023723;28;20089;-56
2023/08/07 03:32:52;;;;;;;3.88;1.00;;;16.90;83.20;;;;;;5025132;28;20030;-56
2023/08/07 03:35:18;;;;;;;1.02;0.80;;;16.90;83.20;;;;;;5023663;28;20034;-56
2023/08/07 03:37:43;;;;;;;2.03;1.10;;;16.90;83.20;;;;;;5025164;28;20045;-56
2023/08/07 03:40:09;;;;;;;2.40;1.02;;;16.90;83.30;;;;;;5023743;28;20107;-56
2023/08/07 03:42:35;;;;;;;2.00;0.90;;;16.90;83.20;;;;;;5025043;28;20140;-56
2023/08/07 03:45:00;;;;;;;2.13;1.15;;;16.90;83.30;;;;;;5025054;28;20030;-56
2023/08/07 03:47:26;;;;;;;1.00;0.90;;;16.80;83.30;;;;;;5024910;28;20030;-56
2023/08/07 03:49:51;;;;;;;1.45;0.93;;;16.80;83.30;;;;;;5023451;28;20018;-56
2023/08/07 03:52:18;;;;;;;1.80;1.02;;;16.90;83.40;;;;;;5025939;28;20117;-55
2023/08/07 03:54:43;;;;;;;2.05;0.85;;;16.80;84.00;;;;;;5025041;28;20044;-55
2023/08/07 03:57:10;;;;;;;2.40;0.93;;;16.80;83.40;;;;;;5023470;28;20081;-56
2023/08/07 03:59:36;;;;;;;1.13;0.90;;;16.80;83.30;;;;;;5024886;28;20140;-56
2023/08/07 04:02:01;;;;;;;1.42;0.90;;;16.80;83.40;;;;;;5007179;28;20161;-56
2023/08/07 04:04:27;;;;;;;1.65;1.00;;;16.80;83.30;;;;;;5024890;28;20505;-55
2023/08/07 04:06:52;;;;;;;0.90;0.77;;;16.80;83.30;;;;;;5025051;28;20410;-56
2023/08/07 04:09:19;;;;;;;2.30;1.20;;;16.80;83.30;;;;;;5024640;28;20050;-56
2023/08/07 04:11:45;;;;;;;1.70;0.80;;;16.80;83.30;;;;;;5026744;28;20040;-56
2023/08/07 04:14:11;;;;;;;1.20;0.60;;;16.80;83.30;;;;;;5028549;28;20022;-56
2023/08/07 04:16:37;;;;;;;1.45;1.00;;;16.80;83.30;;;;;;5027037;28;20048;-56
2023/08/07 04:19:02;;;;;;;1.45;0.90;;;16.70;83.30;;;;;;5028569;28;20084;-56
2023/08/07 04:21:29;;;;;;;2.20;0.90;;;16.70;83.30;;;;;;5010817;28;20030;-56
2023/08/07 04:23:55;;;;;;;1.88;0.95;;;16.80;84.00;;;;;;5027168;28;20034;-56
2023/08/07 04:26:20;;;;;;;2.65;0.90;;;16.70;83.30;;;;;;5027390;28;20060;-56
2023/08/07 04:28:46;;;;;;;3.70;0.98;;;16.70;83.30;;;;;;5026880;28;20034;-56
2023/08/07 04:31:12;;;;;;;2.10;0.90;;;16.70;83.40;;;;;;5027776;28;20033;-56
2023/08/07 04:33:38;;;;;;;3.90;1.10;;;16.70;83.30;;;;;;5028220;28;20026;-56
2023/08/07 04:36:04;;;;;;;1.90;1.10;;;16.70;83.40;;;;;;5027848;28;20026;-56
2023/08/07 04:38:29;;;;;;;2.75;0.95;;;16.60;83.40;;;;;;5026619;28;20038;-56
2023/08/07 04:40:55;;;;;;;1.75;0.90;;;16.70;83.50;;;;;;5028061;28;20030;-56
2023/08/07 04:43:20;;;;;;;1.38;1.05;;;16.70;83.50;;;;;;5043104;28;20030;-56
2023/08/07 04:45:46;;;;;;;1.15;0.90;;;16.70;83.50;;;;;;5026502;28;20034;-56
2023/08/07 04:48:11;;;;;;;1.95;1.00;;;16.70;83.50;;;;;;5010056;28;20120;-56
2023/08/07 04:50:37;;;;;;;1.95;0.70;;;16.60;83.40;;;;;;5043067;28;20054;-56
2023/08/07 04:53:04;;;;;;;1.20;0.90;;;16.60;83.50;;;;;;5010359;28;20088;-56
2023/08/07 04:55:30;;;;;;;1.95;0.90;;;16.60;83.40;;;;;;5010062;28;20041;-56
2023/08/07 04:57:56;;;;;;;0.80;0.80;;;16.60;83.50;;;;;;5010118;28;20053;-56
2023/08/07 05:00:22;;;;;;;1.35;1.00;;;16.60;83.50;;;;;;5026511;28;20088;-56
2023/08/07 05:02:50;;;;;;;0.75;0.47;;;16.60;83.40;;;;;;5026504;28;20034;-56
2023/08/07 05:05:16;;;;;;;1.15;0.80;;;16.60;83.40;;;;;;5027536;28;20120;-56
2023/08/07 05:07:42;;;;;;;1.13;0.77;;;16.60;84.10;;;;;;5026255;28;20108;-56
2023/08/07 05:10:09;;;;;;;1.23;1.00;;;16.60;83.50;;;;;;5010032;28;20045;-56
2023/08/07 05:12:34;;;;;;;2.53;0.80;;;16.60;83.50;;;;;;5009978;28;20040;-56
2023/08/07 05:15:00;;;;;;;0.88;0.70;;;16.60;83.50;;;;;;5027480;28;20082;-56
2023/08/07 05:17:25;;;;;;;1.05;0.75;;;16.60;83.50;;;;;;5025951;28;20489;-56
2023/08/07 05:19:51;;;;;;;1.10;0.82;;;16.60;83.40;;;;;;5009408;28;20037;-56
2023/08/07 05:22:16;;;;;;;1.00;0.80;;;16.60;83.50;;;;;;5041765;28;20033;-56
2023/08/07 05:24:43;;;;;;;1.80;0.70;;;16.60;83.50;;;;;;5028083;28;20113;-56
2023/08/07 05:27:09;;;;;;;1.00;0.57;;;16.60;83.50;;;;;;5026397;28;20030;-56
2023/08/07 05:29:42;;;;;;;1.75;0.75;;;16.60;83.50;;;;;;5027728;28;20069;-56
2023/08/07 05:32:08;;;;;;;0.80;0.65;;;16.60;83.50;;;;;;5025867;28;20117;-56
2023/08/07 05:34:34;;;;;;;0.88;0.65;;;16.60;83.50;;;;;;4993183;28;20137;-56
2023/08/07 05:36:59;;;;;;;1.27;0.80;;;16.60;83.50;;;;;;5025558;28;20040;-56
2023/08/07 05:39:25;;;;;;;1.42;0.77;;;16.60;84.20;;;;;;5027067;28;20090;-56
2023/08/07 05:41:53;;;;;;;0.80;0.73;;;16.60;83.60;;;;;;5027300;28;20041;-56
2023/08/07 05:44:19;;;;;;;1.73;0.90;;;16.60;83.60;;;;;;5026726;28;20117;-56
2023/08/07 05:46:44;;;;;;;1.30;0.88;;;16.60;83.50;;;;;;5026984;28;20030;-56
2023/08/07 05:49:10;;;;;;;1.88;0.70;;;16.60;83.50;;;;;;5025583;28;20030;-56
2023/08/07 05:51:35;;;;;;;1.58;0.80;;;16.60;84.10;;;;;;5026659;28;20045;-56
2023/08/07 05:54:01;;;;;;;0.90;0.65;;;16.50;83.40;;;;;;5025371;28;20033;-56
2023/08/07 05:56:26;;;;;;;0.95;0.80;;;16.60;83.50;;;;;;5026530;28;20037;-56
2023/08/07 05:58:52;;;;;;;0.88;0.63;;;16.60;83.50;;;;;;5025256;28;20080;-56
2023/08/07 06:01:17;;;;;;;1.48;0.95;;;16.60;84.10;;;;;;5041746;28;20171;-55
2023/08/07 06:03:43;;;;;;;1.50;0.60;;;16.60;83.40;;;;;;5008809;28;20037;-56
2023/08/07 06:06:09;;;;;;;2.58;0.90;;;16.60;83.30;;;;;;5026513;28;20030;-56
2023/08/07 06:08:34;;;;;;;1.83;0.93;;;16.60;83.30;;;;;;5023058;28;20031;-56
2023/08/07 06:11:03;;;;;;;1.60;0.98;;;16.60;83.10;;;;;;5023168;28;20021;-56
2023/08/07 06:13:29;;;;;;;2.45;1.20;;;16.70;83.10;;;;;;5021659;28;20060;-56
2023/08/07 06:15:54;;;;;;;3.20;1.65;;;16.60;83.10;;;;;;5022644;28;20081;-56
2023/08/07 06:18:20;;;;;;;3.03;1.83;;;16.60;83.10;;;;;;5023695;28;20136;-56
2023/08/07 06:20:46;;;;;;;2.83;2.28;;;16.70;83.10;;;;;;5005219;28;20063;-56
2023/08/07 06:23:12;;;;;;;4.53;2.28;;;16.70;83.10;;;;;;5039571;28;20061;-56
2023/08/07 06:25:37;;;;;;;3.03;1.98;;;16.70;83.10;;;;;;5008024;28;20026;-56
2023/08/07 06:28:03;;;;;;;4.75;2.33;;;16.70;83.00;;;;;;5025781;28;20030;-56
2023/08/07 06:30:30;;;;;;;1.58;1.40;;;16.70;83.00;;;;;;5025385;28;20029;-56
2023/08/07 06:32:56;;;;;;;6.28;1.98;;;16.70;83.00;;;;;;5024816;28;20022;-56
2023/08/07 06:35:21;;;;;;;2.10;1.30;;;16.70;83.00;;;;;;5041025;28;20096;-56
2023/08/07 06:37:47;;;;;;;2.17;1.23;;;16.70;83.00;;;;;;5008164;28;20133;-56
2023/08/07 06:40:12;;;;;;;3.95;1.25;;;16.80;83.00;;;;;;5012152;28;20161;-56
2023/08/07 06:42:38;;;;;;;2.58;1.40;;;16.70;82.90;;;;;;5005210;28;20050;-56
2023/08/07 06:45:04;;;;;;;5.13;1.40;;;16.80;82.80;;;;;;5003707;28;20038;-56
2023/08/07 06:47:30;;;;;;;5.38;1.65;;;16.80;82.80;;;;;;5005519;28;20030;-56
2023/08/07 06:49:55;;;;;;;4.88;1.27;;;16.80;82.80;;;;;;5010333;28;20029;-56
2023/08/07 06:52:21;;;;;;;3.55;1.63;;;16.80;83.50;;;;;;5018387;28;20110;-56
2023/08/07 06:54:47;;;;;;;3.60;1.83;;;16.80;82.90;;;;;;5019556;28;20019;-56
2023/08/07 06:57:12;;;;;;;8.02;1.60;;;16.90;82.90;;;;;;5015077;28;20487;-56
2023/08/07 06:59:38;;;;;;;5.45;1.60;;;16.80;82.90;;;;;;5025337;28;20033;-56
2023/08/07 07:02:04;;;;;;;16.83;2.42;;;16.90;82.90;;;;;;5022264;28;20046;-56
2023/08/07 07:04:29;;;;;;;35.03;4.47;;;16.90;83.00;;;;;;5007006;28;20065;-56
2023/08/07 07:06:55;;;;;;;39.22;4.45;;;16.90;83.10;;;;;;5023474;28;20041;-56
2023/08/07 07:09:21;;;;;;;19.48;3.60;;;16.90;83.20;;;;;;5023442;28;20045;-56
2023/08/07 07:11:46;;;;;;;22.38;3.92;;;16.90;83.20;;;;;;5005333;28;20145;-56
2023/08/07 07:14:12;;;;;;;19.40;3.28;;;16.90;83.20;;;;;;5002143;28;20068;-56
2023/08/07 07:16:37;;;;;;;24.63;4.13;;;16.90;83.30;;;;;;5022898;28;20013;-56
2023/08/07 07:19:03;;;;;;;29.25;3.60;;;16.90;83.20;;;;;;5023428;28;20543;-56
2023/08/07 07:21:29;;;;;;;26.15;4.03;;;17.00;83.20;;;;;;5000468;28;20038;-56
2023/08/07 07:23:55;;;;;;;28.45;3.50;;;17.00;83.20;;;;;;5024253;28;20102;-56
2023/08/07 07:26:20;;;;;;;23.73;3.30;;;17.00;83.10;;;;;;5023851;28;20034;-56
2023/08/07 07:28:46;;;;;;;19.05;3.17;;;17.10;83.00;;;;;;5023284;28;20029;-56
2023/08/07 07:31:11;;;;;;;27.83;3.70;;;17.10;82.90;;;;;;5040107;28;20041;-56
2023/08/07 07:33:39;;;;;;;33.78;4.15;;;17.10;82.90;;;;;;5031699;28;20098;-56
2023/08/07 07:36:06;;;;;;;30.50;4.13;;;17.10;83.00;;;;;;5008281;28;20018;-56
2023/08/07 07:38:31;;;;;;;35.05;3.65;;;17.10;83.00;;;;;;5034651;28;20057;-56
2023/08/07 07:40:57;;;;;;;23.00;3.13;;;17.10;83.00;;;;;;5005812;28;20046;-56
2023/08/07 07:43:23;;;;;;;31.35;4.05;;;17.10;83.10;;;;;;5020895;28;20429;-56
2023/08/07 07:45:49;;;;;;;20.08;2.95;;;17.10;83.20;;;;;;5021269;28;20041;-56
2023/08/07 07:48:14;;;;;;;18.52;2.70;;;17.20;83.30;;;;;;5018084;28;20038;-56
2023/08/07 07:50:41;;;;;;;23.58;3.28;;;17.20;83.40;;;;;;5029504;28;20469;-56
2023/08/07 07:53:06;;;;;;;22.60;2.95;;;17.10;83.30;;;;;;5015631;28;20105;-56
2023/08/07 07:55:34;;;;;;;29.00;3.67;;;17.20;83.40;;;;;;5000567;28;20022;-56
2023/08/07 07:57:59;;;;;;;26.50;3.65;;;17.20;83.40;;;;;;5022109;28;20060;-56
2023/08/07 08:00:27;;;;;;;14.25;2.75;;;17.20;83.40;;;;;;5022335;28;20104;-56
2023/08/07 08:02:53;;;;;;;19.52;3.08;;;17.20;83.40;;;;;;4989527;28;20132;-56
2023/08/07 08:05:19;;;;;;;23.42;3.60;;;17.20;83.40;;;;;;5017775;28;20034;-56
2023/08/07 08:07:45;;;;;;;18.48;3.08;;;17.20;83.40;;;;;;5020202;28;20037;-56
2023/08/07 08:10:10;;;;;;;20.77;3.30;;;17.30;83.50;;;;;;5019038;28;20595;-56
2023/08/07 08:12:36;;;;;;;19.00;2.83;;;17.20;83.70;;;;;;5016412;28;20033;-56
2023/08/07 08:15:02;;;;;;;16.05;2.70;;;17.20;84.00;;;;;;5024961;28;20082;-56
2023/08/07 08:17:28;;;;;;;13.23;2.63;;;17.20;84.30;;;;;;5021629;28;20067;-56
2023/08/07 08:19:54;;;;;;;14.40;2.60;;;17.20;84.50;;;;;;5017270;28;20054;-56
2023/08/07 08:22:19;;;;;;;16.90;2.60;;;17.20;84.70;;;;;;5018313;28;20037;-56
2023/08/07 08:24:45;;;;;;;15.32;2.75;;;17.20;84.60;;;;;;5019052;28;20482;-56
2023/08/07 08:27:11;;;;;;;24.25;3.00;;;17.20;84.70;;;;;;5002221;28;20026;-56
2023/08/07 08:29:36;;;;;;;26.33;2.60;;;17.20;84.70;;;;;;5020548;28;20033;-56
2023/08/07 08:32:02;;;;;;;11.00;2.30;;;17.20;84.70;;;;;;5022111;28;20056;-56
2023/08/07 08:34:27;;;;;;;33.08;2.88;;;17.20;84.70;;;;;;5021581;28;20038;-56
2023/08/07 08:36:53;;;;;;;15.95;2.88;;;17.20;84.80;;;;;;5021634;28;20073;-56
2023/08/07 08:39:18;;;;;;;14.50;2.38;;;17.20;84.80;;;;;;5019612;28;20040;-56
2023/08/07 08:41:46;;;;;;;36.92;3.70;;;17.20;84.90;;;;;;5016851;28;20053;-56
2023/08/07 08:44:12;;;;;;;21.05;3.05;;;17.20;85.30;;;;;;5023351;28;20034;-56
2023/08/07 08:46:38;;;;;;;21.90;3.53;;;17.20;85.40;;;;;;5023468;28;20504;-56
2023/08/07 08:49:03;;;;;;;20.38;3.22;;;17.20;85.40;;;;;;4996658;28;20044;-56
2023/08/07 08:51:29;;;;;;;31.70;3.53;;;17.20;85.40;;;;;;5004999;28;20022;-56
2023/08/07 08:53:56;;;;;;;22.40;3.72;;;17.20;85.50;;;;;;4996967;28;20060;-56
2023/08/07 08:56:22;;;;;;;28.95;3.67;;;17.30;86.30;;;;;;5020027;28;20044;-56
2023/08/07 08:58:48;;;;;;;23.23;2.90;;;17.30;85.70;;;;;;5025376;28;20125;-56
2023/08/07 09:01:14;;;;;;;25.95;3.42;;;17.30;85.80;;;;;;5025540;28;20038;-56
2023/08/07 09:03:40;;;;;;;28.75;4.35;;;17.30;85.90;;;;;;5022745;28;20040;-56
2023/08/07 09:06:06;;;;;;;24.60;3.63;;;17.30;86.00;;;;;;5023657;28;20048;-56
2023/08/07 09:08:32;;;;;;;22.20;3.33;;;17.40;86.00;;;;;;5025717;28;20038;-55
2023/08/07 09:10:58;;;;;;;30.15;4.28;;;17.40;85.90;;;;;;5011626;28;20031;-57
2023/08/07 09:13:24;;;;;;;36.40;4.57;;;17.40;86.00;;;;;;5015626;28;20034;-56
2023/08/07 09:15:50;;;;;;;38.25;5.80;;;17.40;86.00;;;;;;5025354;28;20049;-56
2023/08/07 09:18:16;;;;;;;37.50;5.55;;;17.40;85.90;;;;;;5025337;28;20061;-56
2023/08/07 09:20:42;;;;;;;35.78;4.50;;;17.50;86.00;;;;;;5025204;28;20421;-56
2023/08/07 09:23:07;;;;;;;45.35;5.20;;;17.40;85.90;;;;;;5008470;28;20076;-56
2023/08/07 09:25:33;;;;;;;39.80;4.57;;;17.40;85.80;;;;;;5023219;28;20037;-56
2023/08/07 09:28:04;;;;;;;24.23;4.35;;;17.40;85.90;;;;;;5019548;28;20030;-55
2023/08/07 09:30:29;;;;;;;29.05;4.53;;;17.40;85.80;;;;;;5022927;28;20100;-56
2023/08/07 09:32:57;;;;;;;27.88;5.18;;;17.50;85.70;;;;;;5023436;28;20022;-56
2023/08/07 09:35:23;;;;;;;26.60;4.25;;;17.50;85.60;;;;;;5025720;28;20125;-56
2023/08/07 09:37:49;;;;;;;46.80;4.97;;;17.50;85.70;;;;;;5025514;28;20143;-56
2023/08/07 09:40:16;;;;;;;36.20;5.32;;;17.50;85.60;;;;;;5019356;28;20037;-56
2023/08/07 09:42:41;;;;;;;34.95;5.00;;;17.40;85.50;;;;;;5014089;28;20111;-56
2023/08/07 09:45:28;;;;;;;30.80;4.60;;;17.50;85.60;;;;;;5020226;28;20034;-56
2023/08/07 09:48:08;;;;;;;31.08;5.30;;;17.50;85.50;;;;;;5022444;28;20048;-56
2023/08/07 09:50:34;;;;;;;36.58;5.35;;;17.50;85.50;;;;;;5001372;28;20030;-56
2023/08/07 09:52:59;;;;;;;31.10;5.72;;;17.60;85.50;;;;;;5020351;28;20028;-56
2023/08/07 09:55:25;;;;;;;57.65;6.72;;;17.60;85.40;;;;;;5019843;28;20022;-56
2023/08/07 09:57:51;;;;;;;52.75;6.20;;;17.70;86.10;;;;;;5025150;28;20042;-56
2023/08/07 10:00:19;;;;;;;47.50;5.70;;;17.70;85.40;;;;;;5002134;28;20034;-56
2023/08/07 10:02:45;;;;;;;39.20;6.10;;;17.70;85.90;;;;;;5022326;28;20030;-56
2023/08/07 10:05:11;;;;;;;37.65;5.00;;;17.80;85.10;;;;;;5021793;28;20042;-56
2023/08/07 10:07:40;;;;;;;44.05;6.57;;;17.80;85.10;;;;;;5023643;28;20091;-55
2023/08/07 10:10:06;;;;;;;50.58;6.82;;;17.80;85.00;;;;;;5022794;28;20467;-56
2023/08/07 10:12:32;;;;;;;53.92;6.20;;;17.80;84.90;;;;;;5023657;28;20034;-56
2023/08/07 10:15:01;;;;;;;60.75;6.95;;;17.90;84.80;;;;;;5022815;28;20038;-56
2023/08/07 10:17:27;;;;;;;45.88;6.90;;;17.90;84.80;;;;;;5023875;28;20629;-56
2023/08/07 10:19:52;;;;;;;60.08;7.10;;;18.00;84.80;;;;;;5022844;28;20442;-56
2023/08/07 10:22:21;;;;;;;38.60;5.95;;;18.00;84.80;;;;;;5020219;28;20045;-56
2023/08/07 10:24:48;;;;;;;33.95;6.22;;;18.00;84.40;;;;;;4995530;28;20030;-56
2023/08/07 10:27:14;;;;;;;43.55;6.05;;;18.00;84.20;;;;;;5023497;28;20037;-56
2023/08/07 10:29:39;;;;;;;40.67;7.05;;;18.00;84.10;;;;;;5022182;28;20052;-56
2023/08/07 10:32:06;;;;;;;50.90;6.97;;;18.00;84.00;;;;;;5011268;28;20026;-56
2023/08/07 10:34:33;;;;;;;58.30;7.22;;;18.10;83.90;;;;;;5035693;28;20045;-56
2023/08/07 10:36:59;;;;;;;62.47;8.25;;;18.10;83.90;;;;;;5022283;28;20063;-56
2023/08/07 10:39:24;;;;;;;52.88;7.70;;;18.10;83.80;;;;;;5020503;28;20061;-56
2023/08/07 10:41:54;;;;;;;56.13;7.90;;;18.10;83.80;;;;;;5019726;28;20025;-56
2023/08/07 10:44:30;;;;;;;54.78;7.80;;;18.20;83.90;;;;;;5006752;28;20033;-56
2023/08/07 10:46:56;;;;;;;81.00;10.23;;;18.20;83.70;;;;;;5023183;28;20104;-57
2023/08/07 10:49:40;;;;;;;65.93;8.25;;;18.20;83.70;;;;;;5022187;28;20128;-56
2023/08/07 10:52:11;;;;;;;63.75;8.95;;;18.20;83.50;;;;;;5007063;28;20021;-56
2023/08/07 10:54:42;;;;;;;62.67;8.98;;;18.20;83.50;;;;;;5024041;28;20030;-56
2023/08/07 10:57:15;;;;;;;62.25;9.07;;;18.30;83.50;;;;;;5021847;28;20026;-56
2023/08/07 10:59:45;;;;;;;68.90;8.35;;;18.30;83.40;;;;;;5023901;28;20026;-56
2023/08/07 11:02:11;;;;;;;54.35;7.57;;;18.30;83.20;;;;;;5024626;28;20025;-55
2023/08/07 11:04:37;;;;;;;66.63;7.70;;;18.30;83.00;;;;;;5021959;28;20399;-56
2023/08/07 11:07:03;;;;;;;73.38;10.02;;;18.30;82.70;;;;;;5006686;28;20065;-57
2023/08/07 11:09:28;;;;;;;61.75;9.05;;;18.30;82.60;;;;;;5023756;28;20026;-56
2023/08/07 11:11:54;;;;;;;60.00;8.32;;;18.40;82.60;;;;;;5021844;28;20030;-57
2023/08/07 11:14:19;;;;;;;53.00;8.23;;;18.40;82.40;;;;;;5022207;28;20038;-56
2023/08/07 11:16:46;;;;;;;46.55;7.68;;;18.40;82.20;;;;;;5023696;28;20025;-56
2023/08/07 11:19:16;;;;;;;38.92;6.28;;;18.50;82.10;;;;;;5023227;28;20041;-56
2023/08/07 11:21:42;;;;;;;44.55;6.47;;;18.50;82.00;;;;;;5022709;28;20109;-58
2023/08/07 11:24:07;;;;;;;85.05;10.65;;;18.60;81.90;;;;;;5023040;28;20046;-56
2023/08/07 11:26:33;;;;;;;71.15;10.18;;;18.60;81.70;;;;;;5022696;28;20041;-56
2023/08/07 11:28:59;;;;;;;50.15;8.60;;;18.60;81.30;;;;;;5025113;28;20040;-56
2023/08/07 11:31:25;;;;;;;42.20;6.53;;;18.70;81.40;;;;;;5018383;28;20358;-56
2023/08/07 11:33:59;;;;;;;60.65;8.45;;;18.70;82.00;;;;;;5038112;28;20037;-56
2023/08/07 11:36:25;;;;;;;50.27;8.00;;;18.80;81.00;;;;;;5020121;28;20049;-56
2023/08/07 11:38:51;;;;;;;68.97;8.52;;;18.80;80.60;;;;;;4996351;28;20030;-56
2023/08/07 11:41:17;;;;;;;50.58;6.63;;;18.80;80.20;;;;;;5024100;28;20022;-56
2023/08/07 11:43:43;;;;;;;57.53;9.70;;;18.80;79.70;;;;;;4997046;28;20053;-56
2023/08/07 11:46:13;;;;;;;37.25;6.05;;;18.80;79.50;;;;;;5015069;28;20037;-56
2023/08/07 11:48:39;;;;;;;44.17;5.85;;;18.90;79.10;;;;;;5015682;28;20128;-56
2023/08/07 11:51:05;;;;;;;26.98;5.55;;;18.90;78.70;;;;;;5021763;28;20068;-56
2023/08/07 11:53:33;;;;;;;39.65;7.40;;;18.90;78.30;;;;;;5020766;28;20026;-56
2023/08/07 11:55:59;;;;;;;37.67;5.30;;;19.00;77.70;;;;;;5022835;28;20026;-56
2023/08/07 11:58:26;;;;;;;53.75;7.75;;;19.10;77.20;;;;;;5023199;28;20036;-56
2023/08/07 12:00:52;;;;;;;56.00;7.53;;;19.10;76.80;;;;;;5019751;28;20053;-56
2023/08/07 12:03:31;;;;;;;70.07;8.07;;;19.20;76.70;;;;;;5017968;28;20037;-56
2023/08/07 12:05:58;;;;;;;47.17;7.05;;;19.30;76.40;;;;;;5004471;28;20122;-56
2023/08/07 12:08:37;;;;;;;41.70;6.63;;;19.40;76.40;;;;;;4997844;28;20637;-56
2023/08/07 12:11:12;;;;;;;42.53;6.38;;;19.40;76.10;;;;;;5020951;28;20025;-56
2023/08/07 12:13:38;;;;;;;52.55;6.85;;;19.50;76.10;;;;;;5019555;28;20090;-56
2023/08/07 12:16:04;;;;;;;53.58;6.97;;;19.60;76.00;;;;;;5015051;28;20025;-56
2023/08/07 12:18:30;;;;;;;46.95;5.88;;;19.60;75.30;;;;;;5023520;28;20044;-56
2023/08/07 12:21:03;;;;;;;33.97;5.63;;;19.70;75.00;;;;;;5022178;28;20030;-56
2023/08/07 12:23:29;;;;;;;38.33;5.40;;;19.80;74.60;;;;;;5021195;28;20042;-56
2023/08/07 12:25:55;;;;;;;34.58;6.05;;;19.90;74.30;;;;;;5021714;28;20140;-56
2023/08/07 12:28:20;;;;;;;32.75;5.30;;;20.00;74.00;;;;;;5020067;28;20034;-56
2023/08/07 12:30:46;;;;;;;26.80;5.18;;;20.10;74.10;;;;;;5020387;28;20519;-56
2023/08/07 12:33:12;;;;;;;46.85;6.40;;;20.20;74.00;;;;;;5024855;28;20026;-56
2023/08/07 12:35:37;;;;;;;38.00;6.53;;;20.20;73.70;;;;;;5025398;28;20040;-56
2023/08/07 12:38:03;;;;;;;30.90;5.45;;;20.30;73.80;;;;;;5024273;28;20108;-56